createdAt,value
2018-12-05T00:00:13.354Z,16.4
2018-12-05T00:01:03.128Z,16.4
2018-12-05T00:01:53.465Z,16.4
2018-12-05T00:02:43.243Z,16.4
2018-12-05T00:03:33.558Z,16.5
2018-12-05T00:04:23.092Z,16.5
2018-12-05T00:05:13.436Z,16.4
2018-12-05T00:06:03.196Z,16.4
2018-12-05T00:06:53.802Z,16.5
2018-12-05T00:25:05.572Z,16.4
2018-12-05T00:25:55.389Z,16.4
2018-12-05T00:26:45.433Z,16.4
2018-12-05T00:27:35.499Z,16.4
2018-12-05T00:28:25.255Z,16.4
2018-12-05T00:29:14.786Z,16.4
2018-12-05T00:30:05.936Z,16.4
2018-12-05T00:30:55.458Z,16.4
2018-12-05T00:31:45.233Z,16.4
2018-12-05T00:32:35.613Z,16.4
2018-12-05T00:33:26.439Z,16.4
2018-12-05T00:34:16.161Z,16.4
2018-12-05T00:35:05.450Z,16.4
2018-12-05T00:35:56.258Z,16.4
2018-12-05T00:36:46.026Z,16.4
2018-12-05T00:37:35.848Z,16.4
2018-12-05T00:38:26.753Z,16.4
2018-12-05T00:39:16.765Z,16.4
2018-12-05T00:40:07.381Z,16.4
2018-12-05T00:40:56.050Z,16.4
2018-12-05T00:41:46.932Z,16.4
2018-12-05T00:42:36.453Z,16.4
2018-12-05T00:43:27.370Z,16.4
2018-12-05T00:44:17.076Z,16.4
2018-12-05T00:45:07.170Z,16.4
2018-12-05T00:45:56.943Z,16.4
2018-12-05T00:46:46.992Z,16.4
2018-12-05T00:47:36.496Z,16.4
2018-12-05T00:48:27.390Z,16.4
2018-12-05T00:49:16.612Z,16.4
2018-12-05T00:50:07.234Z,16.4
2018-12-05T00:50:57.522Z,16.4
2018-12-05T00:51:46.519Z,16.4
2018-12-05T00:52:36.860Z,16.4
2018-12-05T00:53:27.737Z,16.4
2018-12-05T00:54:17.512Z,16.4
2018-12-05T00:55:07.844Z,16.4
2018-12-05T00:55:57.904Z,16.4
2018-12-05T00:56:47.686Z,16.4
2018-12-05T00:57:37.472Z,16.4
2018-12-05T00:58:28.069Z,16.4
2018-12-05T00:59:17.878Z,16.4
2018-12-05T01:00:08.202Z,16.4
2018-12-05T01:00:57.981Z,16.4
2018-12-05T01:01:48.028Z,16.4
2018-12-05T01:02:38.366Z,16.4
2018-12-05T01:03:27.886Z,16.4
2018-12-05T01:04:18.256Z,16.4
2018-12-05T01:05:10.254Z,16.4
2018-12-05T01:05:58.026Z,16.4
2018-12-05T01:06:48.656Z,16.4
2018-12-05T01:07:37.871Z,16.4
2018-12-05T01:08:28.499Z,16.4
2018-12-05T01:09:18.276Z,16.4
2018-12-05T01:10:07.546Z,16.4
2018-12-05T01:10:59.011Z,16.4
2018-12-05T01:11:49.051Z,16.4
2018-12-05T01:12:38.504Z,16.4
2018-12-05T01:13:28.821Z,16.4
2018-12-05T01:14:19.163Z,16.4
2018-12-05T01:15:09.566Z,16.4
2018-12-05T01:15:58.970Z,16.4
2018-12-05T01:16:49.086Z,16.4
2018-12-05T01:17:38.618Z,16.4
2018-12-05T01:18:29.182Z,16.4
2018-12-05T01:19:20.012Z,16.4
2018-12-05T01:20:08.460Z,16.4
2018-12-05T01:20:59.596Z,16.4
2018-12-05T01:21:49.408Z,16.4
2018-12-05T01:22:39.722Z,16.4
2018-12-05T01:23:29.805Z,16.4
2018-12-05T01:24:19.585Z,16.4
2018-12-05T01:25:09.357Z,16.4
2018-12-05T01:25:59.682Z,16.4
2018-12-05T01:26:49.172Z,16.4
2018-12-05T01:27:40.087Z,16.4
2018-12-05T01:28:29.312Z,16.4
2018-12-05T01:29:19.629Z,16.4
2018-12-05T01:30:10.219Z,16.4
2018-12-05T01:31:00.282Z,16.4
2018-12-05T01:31:49.254Z,16.4
2018-12-05T01:32:40.426Z,16.4
2018-12-05T01:33:30.212Z,16.4
2018-12-05T01:34:20.592Z,16.4
2018-12-05T01:35:10.852Z,16.4
2018-12-05T01:36:00.355Z,16.4
2018-12-05T01:36:49.951Z,16.4
2018-12-05T01:37:39.641Z,16.3
2018-12-05T01:38:30.001Z,16.3
2018-12-05T01:39:20.634Z,16.4
2018-12-05T01:40:10.652Z,16.3
2018-12-05T01:41:00.766Z,16.4
2018-12-05T01:41:50.204Z,16.3
2018-12-05T01:42:40.561Z,16.3
2018-12-05T01:43:30.368Z,16.3
2018-12-05T01:44:20.401Z,16.3
2018-12-05T01:45:11.269Z,16.4
2018-12-05T01:46:01.058Z,16.3
2018-12-05T01:46:50.836Z,16.3
2018-12-05T01:47:40.974Z,16.3
2018-12-05T01:48:31.246Z,16.3
2018-12-05T01:49:21.304Z,16.3
2018-12-05T01:50:10.786Z,16.3
2018-12-05T01:51:01.393Z,16.3
2018-12-05T01:51:50.696Z,16.3
2018-12-05T01:52:42.043Z,16.3
2018-12-05T01:53:31.853Z,16.3
2018-12-05T01:54:21.659Z,16.3
2018-12-05T01:55:11.126Z,16.3
2018-12-05T01:56:01.718Z,16.3
2018-12-05T01:56:52.036Z,16.3
2018-12-05T01:57:42.201Z,16.3
2018-12-05T01:58:31.449Z,16.3
2018-12-05T01:59:21.976Z,16.3
2018-12-05T02:00:12.311Z,16.3
2018-12-05T02:01:01.868Z,16.3
2018-12-05T02:01:52.469Z,16.3
2018-12-05T02:02:41.917Z,16.3
2018-12-05T02:03:32.538Z,16.3
2018-12-05T02:04:21.760Z,16.3
2018-12-05T02:05:12.093Z,16.3
2018-12-05T02:06:02.148Z,16.3
2018-12-05T02:06:52.773Z,16.3
2018-12-05T02:07:42.813Z,16.3
2018-12-05T02:08:32.051Z,16.3
2018-12-05T02:09:22.653Z,16.3
2018-12-05T02:10:12.714Z,16.3
2018-12-05T02:11:03.295Z,16.3
2018-12-05T02:11:52.555Z,16.3
2018-12-05T02:12:42.373Z,16.3
2018-12-05T02:13:32.938Z,16.3
2018-12-05T02:14:23.107Z,16.3
2018-12-05T02:15:13.061Z,16.3
2018-12-05T02:16:02.624Z,16.3
2018-12-05T02:16:53.453Z,16.3
2018-12-05T02:17:42.691Z,16.3
2018-12-05T02:18:33.005Z,16.3
2018-12-05T02:19:23.344Z,16.3
2018-12-05T02:20:13.469Z,16.3
2018-12-05T02:21:04.133Z,16.3
2018-12-05T02:21:53.527Z,16.3
2018-12-05T02:22:42.701Z,16.3
2018-12-05T02:23:33.623Z,16.3
2018-12-05T02:24:23.442Z,16.3
2018-12-05T02:25:14.007Z,16.3
2018-12-05T02:26:03.587Z,16.3
2018-12-05T02:26:54.121Z,16.3
2018-12-05T02:27:43.498Z,16.3
2018-12-05T02:28:33.700Z,16.3
2018-12-05T02:29:24.011Z,16.3
2018-12-05T02:30:14.512Z,16.3
2018-12-05T02:31:04.178Z,16.3
2018-12-05T02:31:54.474Z,16.3
2018-12-05T02:32:44.573Z,16.3
2018-12-05T02:33:34.603Z,16.3
2018-12-05T02:34:24.466Z,16.3
2018-12-05T02:35:14.156Z,16.3
2018-12-05T02:36:04.800Z,16.3
2018-12-05T02:36:54.349Z,16.3
2018-12-05T02:37:44.346Z,16.3
2018-12-05T02:38:34.676Z,16.3
2018-12-05T02:39:24.753Z,16.3
2018-12-05T02:40:15.048Z,16.3
2018-12-05T02:41:04.828Z,16.3
2018-12-05T02:41:54.721Z,16.3
2018-12-05T02:42:44.161Z,16.3
2018-12-05T02:43:34.748Z,16.3
2018-12-05T02:44:25.408Z,16.3
2018-12-05T02:45:14.913Z,16.3
2018-12-05T02:46:05.483Z,16.3
2018-12-05T02:46:54.922Z,16.3
2018-12-05T02:47:45.410Z,16.3
2018-12-05T02:48:35.055Z,16.3
2018-12-05T02:49:24.591Z,16.3
2018-12-05T02:50:15.482Z,16.3
2018-12-05T02:51:05.258Z,16.3
2018-12-05T02:51:55.030Z,16.3
2018-12-05T02:52:45.364Z,16.3
2018-12-05T02:53:35.515Z,16.3
2018-12-05T02:54:25.803Z,16.3
2018-12-05T02:55:15.852Z,16.3
2018-12-05T02:56:06.137Z,16.3
2018-12-05T02:56:55.743Z,16.3
2018-12-05T02:57:46.141Z,16.3
2018-12-05T02:58:36.771Z,16.3
2018-12-05T02:59:25.898Z,16.3
2018-12-05T03:00:18.055Z,16.3
2018-12-05T03:01:06.035Z,16.3
2018-12-05T03:01:55.988Z,16.3
2018-12-05T03:02:46.339Z,16.3
2018-12-05T03:03:36.107Z,16.3
2018-12-05T03:04:26.460Z,16.3
2018-12-05T03:05:16.342Z,16.3
2018-12-05T03:06:06.627Z,16.3
2018-12-05T03:06:56.909Z,16.3
2018-12-05T03:07:46.397Z,16.3
2018-12-05T03:08:36.744Z,16.3
2018-12-05T03:09:27.346Z,16.3
2018-12-05T03:10:16.573Z,16.3
2018-12-05T03:11:06.902Z,16.3
2018-12-05T03:11:56.955Z,16.3
2018-12-05T03:12:47.013Z,16.3
2018-12-05T03:13:36.800Z,16.3
2018-12-05T03:14:27.123Z,16.3
2018-12-05T03:15:16.906Z,16.3
2018-12-05T03:16:06.713Z,16.3
2018-12-05T03:16:57.295Z,16.3
2018-12-05T03:17:47.623Z,16.2
2018-12-05T03:18:37.161Z,16.3
2018-12-05T03:19:27.453Z,16.3
2018-12-05T03:20:17.251Z,16.3
2018-12-05T03:21:07.890Z,16.2
2018-12-05T03:21:57.931Z,16.3
2018-12-05T03:22:47.980Z,16.3
2018-12-05T03:23:37.778Z,16.3
2018-12-05T03:24:28.140Z,16.3
2018-12-05T03:25:17.867Z,16.3
2018-12-05T03:26:07.973Z,16.3
2018-12-05T03:26:57.737Z,16.3
2018-12-05T03:27:48.350Z,16.3
2018-12-05T03:28:38.377Z,16.3
2018-12-05T03:29:28.422Z,16.3
2018-12-05T03:30:18.455Z,16.3
2018-12-05T03:31:08.095Z,16.2
2018-12-05T03:31:58.443Z,16.2
2018-12-05T03:32:48.765Z,16.2
2018-12-05T03:33:38.603Z,16.2
2018-12-05T03:34:28.500Z,16.2
2018-12-05T03:35:19.960Z,16.2
2018-12-05T03:36:08.334Z,16.2
2018-12-05T03:36:58.386Z,16.2
2018-12-05T03:37:48.166Z,16.2
2018-12-05T03:38:39.141Z,16.2
2018-12-05T03:39:28.849Z,16.2
2018-12-05T03:40:18.939Z,16.2
2018-12-05T03:41:08.804Z,16.2
2018-12-05T03:41:58.824Z,16.2
2018-12-05T03:42:49.056Z,16.2
2018-12-05T03:43:39.409Z,16.2
2018-12-05T03:44:29.200Z,16.2
2018-12-05T03:45:18.959Z,16.2
2018-12-05T03:46:09.039Z,16.2
2018-12-05T03:46:59.056Z,16.2
2018-12-05T03:47:49.706Z,16.2
2018-12-05T03:48:39.489Z,16.2
2018-12-05T03:49:29.516Z,16.3
2018-12-05T03:50:19.086Z,16.2
2018-12-05T03:51:09.974Z,16.2
2018-12-05T03:51:59.413Z,16.2
2018-12-05T03:52:50.028Z,16.2
2018-12-05T03:53:40.113Z,16.2
2018-12-05T03:54:30.203Z,16.2
2018-12-05T03:55:21.732Z,16.2
2018-12-05T03:56:10.046Z,16.2
2018-12-05T03:57:00.398Z,16.2
2018-12-05T03:57:49.857Z,16.2
2018-12-05T03:58:39.943Z,16.2
2018-12-05T03:59:29.676Z,16.2
2018-12-05T04:00:20.298Z,16.2
2018-12-05T04:01:10.568Z,16.2
2018-12-05T04:02:00.755Z,16.2
2018-12-05T04:02:50.725Z,16.2
2018-12-05T04:03:39.948Z,16.2
2018-12-05T04:04:30.819Z,16.2
2018-12-05T04:05:20.891Z,16.2
2018-12-05T04:06:10.690Z,16.2
2018-12-05T04:07:02.253Z,16.2
2018-12-05T04:07:50.800Z,16.2
2018-12-05T04:08:41.133Z,16.2
2018-12-05T04:09:30.625Z,16.2
2018-12-05T04:10:20.987Z,16.2
2018-12-05T04:11:10.747Z,16.2
2018-12-05T04:12:00.791Z,16.2
2018-12-05T04:12:52.629Z,16.2
2018-12-05T04:13:40.338Z,16.2
2018-12-05T04:14:31.116Z,16.2
2018-12-05T04:15:21.059Z,16.2
2018-12-05T04:16:11.344Z,16.2
2018-12-05T04:17:01.508Z,16.2
2018-12-05T04:17:51.659Z,16.1
2018-12-05T04:18:41.864Z,16.2
2018-12-05T04:19:31.620Z,16.1
2018-12-05T04:20:21.637Z,16.1
2018-12-05T04:21:11.417Z,16.1
2018-12-05T04:22:02.030Z,16.2
2018-12-05T04:22:51.812Z,16.2
2018-12-05T04:23:42.255Z,16.2
2018-12-05T04:24:32.261Z,16.1
2018-12-05T04:25:21.757Z,16.1
2018-12-05T04:26:12.032Z,16.1
2018-12-05T04:27:01.574Z,16.1
2018-12-05T04:27:52.156Z,16.1
2018-12-05T04:28:41.937Z,16.2
2018-12-05T04:29:32.259Z,16.1
2018-12-05T04:30:22.576Z,16.1
2018-12-05T04:31:12.656Z,16.2
2018-12-05T04:32:02.473Z,16.1
2018-12-05T04:32:52.816Z,16.1
2018-12-05T04:33:42.270Z,16.1
2018-12-05T04:34:32.620Z,16.1
2018-12-05T04:35:22.386Z,16.1
2018-12-05T04:36:13.019Z,16.1
2018-12-05T04:37:03.163Z,16.1
2018-12-05T04:54:18.019Z,16.1
2018-12-05T04:55:05.950Z,16.1
2018-12-05T04:55:55.973Z,16.1
2018-12-05T04:56:46.092Z,16.1
2018-12-05T04:57:36.383Z,16.1
2018-12-05T04:58:26.751Z,16.1
2018-12-05T04:59:19.584Z,16.1
2018-12-05T05:00:06.302Z,16.1
2018-12-05T05:00:56.317Z,16.1
2018-12-05T05:01:46.670Z,16.1
2018-12-05T05:02:36.149Z,16.1
2018-12-05T05:03:26.190Z,16.1
2018-12-05T05:04:16.810Z,16.1
2018-12-05T05:05:06.847Z,16.1
2018-12-05T05:05:57.057Z,16.1
2018-12-05T05:06:46.810Z,16.1
2018-12-05T05:07:36.790Z,16.1
2018-12-05T05:08:27.105Z,16.1
2018-12-05T05:09:17.438Z,16.1
2018-12-05T05:10:06.124Z,16.1
2018-12-05T05:10:57.549Z,16.1
2018-12-05T05:11:47.394Z,16.1
2018-12-05T05:12:37.096Z,16.1
2018-12-05T05:13:27.741Z,16.1
2018-12-05T05:14:16.951Z,16.1
2018-12-05T05:15:07.291Z,16.1
2018-12-05T05:15:57.333Z,16.1
2018-12-05T05:16:47.717Z,16.1
2018-12-05T05:17:37.458Z,16.1
2018-12-05T05:18:27.784Z,16.1
2018-12-05T05:19:18.009Z,16.1
2018-12-05T05:20:08.140Z,16.1
2018-12-05T05:20:57.689Z,16.1
2018-12-05T05:21:47.731Z,16.1
2018-12-05T05:22:38.201Z,16.1
2018-12-05T05:23:28.137Z,16.1
2018-12-05T05:24:17.914Z,16.1
2018-12-05T05:25:08.566Z,16.1
2018-12-05T05:25:58.060Z,16.1
2018-12-05T05:26:48.348Z,16.1
2018-12-05T05:27:45.671Z,16.1
2018-12-05T05:28:28.181Z,16.1
2018-12-05T05:29:18.511Z,16.1
2018-12-05T05:30:09.195Z,16.1
2018-12-05T05:30:58.345Z,16.1
2018-12-05T05:31:48.959Z,16.1
2018-12-05T05:32:37.936Z,16.1
2018-12-05T05:33:28.825Z,16.1
2018-12-05T05:34:18.858Z,16.1
2018-12-05T05:35:09.176Z,16.1
2018-12-05T05:35:58.435Z,16.1
2018-12-05T05:36:49.044Z,16.1
2018-12-05T05:37:39.103Z,16.1
2018-12-05T05:38:28.645Z,16.1
2018-12-05T05:39:19.193Z,16.1
2018-12-05T05:40:09.592Z,16.1
2018-12-05T05:40:59.553Z,16.1
2018-12-05T05:41:49.172Z,16.1
2018-12-05T05:42:39.138Z,16.1
2018-12-05T05:43:29.202Z,16.1
2018-12-05T05:44:19.555Z,16.1
2018-12-05T05:45:09.837Z,16.1
2018-12-05T05:45:59.928Z,16.1
2018-12-05T05:46:50.029Z,16.1
2018-12-05T05:47:40.044Z,16.1
2018-12-05T05:48:29.802Z,16.1
2018-12-05T05:49:19.862Z,16.1
2018-12-05T05:50:09.941Z,16.1
2018-12-05T05:50:59.722Z,16.1
2018-12-05T05:51:49.762Z,16.1
2018-12-05T05:52:39.565Z,16.1
2018-12-05T05:53:29.599Z,16.1
2018-12-05T05:54:20.499Z,16.1
2018-12-05T05:55:10.554Z,16.1
2018-12-05T05:56:00.335Z,16.1
2018-12-05T05:56:50.149Z,16.1
2018-12-05T05:57:40.444Z,16.1
2018-12-05T05:58:30.224Z,16.1
2018-12-05T05:59:20.624Z,16.1
2018-12-05T06:00:10.900Z,16.1
2018-12-05T06:01:00.397Z,16.1
2018-12-05T06:01:51.005Z,16.1
2018-12-05T06:02:40.514Z,16.1
2018-12-05T06:03:30.902Z,16.1
2018-12-05T06:04:21.176Z,16.1
2018-12-05T06:05:10.949Z,16.1
2018-12-05T06:06:00.968Z,16.1
2018-12-05T06:06:50.774Z,16.1
2018-12-05T06:07:40.854Z,16.1
2018-12-05T06:08:30.898Z,16
2018-12-05T06:09:21.231Z,16.1
2018-12-05T06:10:11.037Z,16.1
2018-12-05T06:11:01.085Z,16.1
2018-12-05T06:11:51.676Z,16.1
2018-12-05T06:12:41.753Z,16
2018-12-05T06:13:31.228Z,16
2018-12-05T06:14:21.574Z,16
2018-12-05T06:15:11.903Z,16.1
2018-12-05T06:16:01.976Z,16
2018-12-05T06:16:51.467Z,16.1
2018-12-05T06:17:41.523Z,16
2018-12-05T06:18:31.590Z,16
2018-12-05T06:19:22.264Z,16
2018-12-05T06:20:11.965Z,16.1
2018-12-05T06:21:01.808Z,16
2018-12-05T06:21:51.853Z,16.1
2018-12-05T06:22:41.856Z,16
2018-12-05T06:23:32.243Z,16
2018-12-05T06:24:22.315Z,16
2018-12-05T06:25:12.626Z,16.1
2018-12-05T06:26:02.410Z,16
2018-12-05T06:26:52.425Z,16
2018-12-05T06:27:42.247Z,16
2018-12-05T06:28:32.580Z,16
2018-12-05T06:29:22.857Z,16
2018-12-05T06:30:12.093Z,16
2018-12-05T06:31:02.700Z,16
2018-12-05T06:31:53.014Z,16
2018-12-05T06:32:42.254Z,16
2018-12-05T06:33:35.080Z,16
2018-12-05T06:34:23.207Z,16
2018-12-05T06:35:13.260Z,16
2018-12-05T06:36:02.767Z,16
2018-12-05T06:36:53.339Z,16
2018-12-05T06:37:43.674Z,16
2018-12-05T06:38:32.929Z,16
2018-12-05T06:39:23.264Z,16
2018-12-05T06:40:12.767Z,16
2018-12-05T06:41:03.392Z,16
2018-12-05T06:41:53.222Z,16
2018-12-05T06:42:43.766Z,16
2018-12-05T06:43:33.830Z,16
2018-12-05T06:44:23.604Z,16
2018-12-05T06:45:14.024Z,16
2018-12-05T06:46:03.164Z,16
2018-12-05T06:46:53.769Z,16
2018-12-05T06:47:44.095Z,16
2018-12-05T06:48:34.194Z,16
2018-12-05T06:49:23.676Z,16
2018-12-05T06:50:14.294Z,16
2018-12-05T06:51:04.096Z,16
2018-12-05T06:51:53.022Z,16
2018-12-05T06:52:43.622Z,16
2018-12-05T06:53:35.591Z,16
2018-12-05T06:54:24.296Z,16
2018-12-05T06:55:14.415Z,16
2018-12-05T06:56:04.698Z,16
2018-12-05T06:56:54.455Z,16
2018-12-05T06:57:44.516Z,16
2018-12-05T06:58:34.301Z,16
2018-12-05T06:59:24.913Z,16
2018-12-05T07:00:14.456Z,16
2018-12-05T07:01:04.485Z,16
2018-12-05T07:01:54.922Z,16
2018-12-05T07:02:45.129Z,16
2018-12-05T07:03:34.632Z,16
2018-12-05T07:04:24.974Z,16
2018-12-05T07:05:15.025Z,16
2018-12-05T07:06:05.085Z,16
2018-12-05T07:06:55.397Z,16
2018-12-05T07:07:45.218Z,16
2018-12-05T07:08:35.537Z,15.9
2018-12-05T07:09:25.037Z,16
2018-12-05T07:10:15.380Z,16
2018-12-05T07:11:05.719Z,16
2018-12-05T07:11:55.190Z,16
2018-12-05T07:12:45.794Z,16
2018-12-05T07:13:35.900Z,16
2018-12-05T07:14:25.697Z,15.9
2018-12-05T07:15:15.444Z,15.9
2018-12-05T07:16:05.801Z,16
2018-12-05T07:16:55.822Z,16
2018-12-05T07:17:45.669Z,16
2018-12-05T07:18:37.048Z,16
2018-12-05T07:19:26.547Z,16
2018-12-05T07:20:16.171Z,16
2018-12-05T07:21:06.114Z,15.9
2018-12-05T07:21:55.897Z,16
2018-12-05T07:22:46.226Z,16
2018-12-05T07:23:36.564Z,15.9
2018-12-05T07:24:26.649Z,16
2018-12-05T07:25:16.129Z,15.9
2018-12-05T07:26:06.539Z,15.9
2018-12-05T07:26:56.519Z,16
2018-12-05T07:27:46.536Z,15.9
2018-12-05T07:28:36.946Z,15.9
2018-12-05T07:29:26.671Z,15.9
2018-12-05T07:30:16.196Z,15.9
2018-12-05T07:31:06.545Z,15.9
2018-12-05T07:31:56.591Z,15.9
2018-12-05T07:32:47.030Z,15.9
2018-12-05T07:33:37.258Z,15.9
2018-12-05T07:34:27.090Z,15.9
2018-12-05T07:35:17.081Z,15.9
2018-12-05T07:36:06.593Z,15.9
2018-12-05T07:36:56.386Z,15.9
2018-12-05T07:37:46.710Z,15.9
2018-12-05T07:38:37.362Z,15.9
2018-12-05T07:39:27.405Z,15.9
2018-12-05T07:40:17.435Z,15.9
2018-12-05T07:41:07.485Z,15.9
2018-12-05T07:41:57.830Z,15.9
2018-12-05T07:42:47.408Z,15.9
2018-12-05T07:43:37.661Z,15.9
2018-12-05T07:44:27.993Z,15.9
2018-12-05T07:45:18.047Z,15.9
2018-12-05T07:46:08.110Z,15.9
2018-12-05T07:46:58.173Z,15.9
2018-12-05T07:47:48.020Z,15.9
2018-12-05T07:48:38.272Z,15.9
2018-12-05T07:49:28.410Z,15.9
2018-12-05T07:50:20.180Z,15.9
2018-12-05T07:51:08.179Z,15.9
2018-12-05T07:51:58.497Z,15.9
2018-12-05T07:52:48.283Z,15.9
2018-12-05T07:53:38.124Z,15.9
2018-12-05T07:54:28.402Z,15.9
2018-12-05T07:55:18.455Z,15.9
2018-12-05T07:56:08.791Z,15.9
2018-12-05T07:56:58.287Z,15.9
2018-12-05T07:57:48.619Z,15.9
2018-12-05T07:58:38.693Z,15.9
2018-12-05T07:59:29.011Z,15.9
2018-12-05T08:00:19.046Z,15.9
2018-12-05T08:01:08.324Z,15.9
2018-12-05T08:01:58.917Z,15.9
2018-12-05T08:02:48.969Z,15.9
2018-12-05T08:03:39.267Z,15.9
2018-12-05T08:04:29.094Z,15.9
2018-12-05T08:05:19.157Z,15.9
2018-12-05T08:06:09.561Z,15.9
2018-12-05T08:06:59.549Z,15.9
2018-12-05T08:07:49.591Z,15.9
2018-12-05T08:08:39.742Z,15.9
2018-12-05T08:09:29.488Z,15.9
2018-12-05T08:10:19.643Z,15.9
2018-12-05T08:11:09.505Z,15.9
2018-12-05T08:11:59.962Z,15.9
2018-12-05T08:12:49.658Z,15.9
2018-12-05T08:13:40.001Z,15.9
2018-12-05T08:14:29.786Z,15.9
2018-12-05T08:15:19.841Z,15.9
2018-12-05T08:16:09.875Z,15.9
2018-12-05T08:16:59.123Z,15.9
2018-12-05T08:17:50.297Z,15.9
2018-12-05T08:18:39.806Z,15.9
2018-12-05T08:19:30.423Z,15.9
2018-12-05T08:20:20.187Z,15.9
2018-12-05T08:21:10.033Z,15.9
2018-12-05T08:22:00.039Z,15.9
2018-12-05T08:22:50.367Z,15.9
2018-12-05T08:23:40.487Z,15.9
2018-12-05T08:24:30.732Z,15.9
2018-12-05T08:25:20.797Z,15.9
2018-12-05T08:26:10.646Z,15.9
2018-12-05T08:27:00.922Z,15.9
2018-12-05T08:27:50.791Z,15.9
2018-12-05T08:28:41.039Z,15.9
2018-12-05T08:29:31.091Z,15.9
2018-12-05T08:30:20.872Z,15.9
2018-12-05T08:31:11.284Z,15.9
2018-12-05T08:32:01.001Z,15.9
2018-12-05T08:32:51.064Z,15.9
2018-12-05T08:33:40.567Z,15.9
2018-12-05T08:34:31.446Z,15.9
2018-12-05T08:35:21.496Z,15.9
2018-12-05T08:36:11.585Z,15.9
2018-12-05T08:37:01.620Z,15.9
2018-12-05T08:37:50.570Z,15.9
2018-12-05T08:38:41.471Z,15.9
2018-12-05T08:39:31.772Z,15.9
2018-12-05T08:40:21.567Z,15.9
2018-12-05T08:41:11.918Z,15.9
2018-12-05T08:42:01.410Z,15.9
2018-12-05T08:42:51.811Z,15.9
2018-12-05T08:43:42.090Z,15.9
2018-12-05T08:44:32.135Z,15.9
2018-12-05T08:45:21.355Z,15.9
2018-12-05T08:46:12.267Z,15.9
2018-12-05T08:47:01.755Z,15.9
2018-12-05T08:47:52.367Z,15.9
2018-12-05T08:48:42.433Z,15.9
2018-12-05T08:49:31.958Z,15.9
2018-12-05T08:50:22.000Z,15.9
2018-12-05T08:51:12.302Z,15.9
2018-12-05T08:52:02.110Z,15.9
2018-12-05T08:52:52.723Z,15.9
2018-12-05T09:08:40.153Z,15.9
2018-12-05T09:09:30.570Z,15.9
2018-12-05T09:10:20.309Z,15.9
2018-12-05T09:11:10.092Z,15.9
2018-12-05T09:12:00.133Z,15.9
2018-12-05T09:12:50.471Z,15.9
2018-12-05T09:13:40.371Z,15.9
2018-12-05T09:14:33.093Z,15.9
2018-12-05T09:15:20.936Z,15.9
2018-12-05T09:16:10.994Z,15.9
2018-12-05T09:17:00.759Z,15.9
2018-12-05T09:17:51.061Z,15.9
2018-12-05T09:18:40.840Z,15.9
2018-12-05T09:19:30.653Z,15.9
2018-12-05T09:20:20.711Z,15.9
2018-12-05T09:21:10.520Z,15.9
2018-12-05T09:22:00.830Z,15.9
2018-12-05T09:22:51.691Z,15.9
2018-12-05T09:23:40.925Z,15.9
2018-12-05T09:24:31.003Z,15.9
2018-12-05T09:25:21.138Z,15.9
2018-12-05T09:26:11.662Z,15.9
2018-12-05T09:27:00.893Z,15.8
2018-12-05T09:27:51.796Z,15.9
2018-12-05T09:28:40.733Z,15.9
2018-12-05T09:29:31.133Z,15.9
2018-12-05T09:30:21.120Z,15.9
2018-12-05T09:31:11.262Z,15.9
2018-12-05T09:32:01.785Z,15.9
2018-12-05T09:32:52.205Z,15.9
2018-12-05T09:33:41.911Z,15.9
2018-12-05T09:34:32.217Z,15.9
2018-12-05T09:35:22.635Z,15.9
2018-12-05T09:36:12.090Z,15.9
2018-12-05T09:37:02.504Z,15.9
2018-12-05T09:37:52.474Z,15.9
2018-12-05T09:38:42.245Z,15.9
2018-12-05T09:39:32.571Z,15.9
2018-12-05T09:40:22.339Z,15.8
2018-12-05T09:41:12.142Z,15.9
2018-12-05T09:42:02.217Z,15.8
2018-12-05T09:42:52.809Z,15.9
2018-12-05T09:43:42.889Z,15.9
2018-12-05T09:44:32.973Z,15.9
2018-12-05T09:45:22.727Z,15.8
2018-12-05T09:46:12.791Z,15.8
2018-12-05T09:47:02.826Z,15.8
2018-12-05T09:47:52.306Z,15.9
2018-12-05T09:48:42.669Z,15.9
2018-12-05T09:49:33.397Z,15.8
2018-12-05T09:50:23.373Z,15.8
2018-12-05T09:51:13.389Z,15.9
2018-12-05T09:52:03.461Z,15.8
2018-12-05T09:52:53.806Z,15.8
2018-12-05T09:53:43.131Z,15.8
2018-12-05T09:54:33.666Z,15.8
2018-12-05T09:55:23.656Z,15.9
2018-12-05T09:56:12.899Z,15.8
2018-12-05T09:57:03.523Z,15.8
2018-12-05T09:57:53.575Z,15.8
2018-12-05T09:58:42.881Z,15.8
2018-12-05T09:59:33.936Z,15.8
2018-12-05T10:00:23.577Z,15.8
2018-12-05T10:01:13.550Z,15.8
2018-12-05T10:02:04.168Z,15.8
2018-12-05T10:02:53.945Z,15.8
2018-12-05T10:03:43.140Z,15.8
2018-12-05T10:04:34.038Z,15.8
2018-12-05T10:05:24.378Z,15.8
2018-12-05T10:06:13.878Z,15.8
2018-12-05T10:07:03.950Z,15.8
2018-12-05T10:07:54.540Z,15.8
2018-12-05T10:08:44.327Z,15.8
2018-12-05T10:09:34.388Z,15.8
2018-12-05T10:10:23.962Z,15.8
2018-12-05T10:11:14.242Z,15.8
2018-12-05T10:12:04.589Z,15.8
2018-12-05T10:12:54.713Z,15.8
2018-12-05T10:13:44.972Z,15.8
2018-12-05T10:14:34.178Z,15.8
2018-12-05T10:15:24.517Z,15.8
2018-12-05T10:16:14.857Z,15.8
2018-12-05T10:17:04.619Z,15.8
2018-12-05T10:17:54.982Z,15.8
2018-12-05T10:18:45.259Z,15.8
2018-12-05T10:19:35.087Z,15.8
2018-12-05T10:20:24.300Z,15.8
2018-12-05T10:21:15.196Z,15.8
2018-12-05T10:22:04.759Z,15.8
2018-12-05T10:22:55.391Z,15.8
2018-12-05T10:23:45.084Z,15.8
2018-12-05T10:24:35.696Z,15.8
2018-12-05T10:25:24.904Z,15.8
2018-12-05T10:26:15.083Z,15.8
2018-12-05T10:27:05.580Z,15.8
2018-12-05T10:27:55.637Z,15.8
2018-12-05T10:28:46.231Z,15.8
2018-12-05T10:29:35.551Z,15.8
2018-12-05T10:30:25.791Z,15.8
2018-12-05T10:31:16.195Z,15.8
2018-12-05T10:32:07.588Z,15.8
2018-12-05T10:32:55.711Z,15.8
2018-12-05T10:33:46.038Z,15.8
2018-12-05T10:34:36.163Z,15.8
2018-12-05T10:35:26.395Z,15.8
2018-12-05T10:36:16.268Z,15.8
2018-12-05T10:37:06.005Z,15.8
2018-12-05T10:37:57.548Z,15.8
2018-12-05T10:38:46.375Z,15.8
2018-12-05T10:39:36.495Z,15.8
2018-12-05T10:40:26.455Z,15.8
2018-12-05T10:41:16.410Z,15.8
2018-12-05T10:42:06.075Z,15.8
2018-12-05T10:42:56.177Z,15.8
2018-12-05T10:43:46.720Z,15.8
2018-12-05T10:44:36.848Z,15.8
2018-12-05T10:45:27.174Z,15.8
2018-12-05T10:46:16.900Z,15.8
2018-12-05T10:47:06.683Z,15.8
2018-12-05T10:47:56.740Z,15.8
2018-12-05T10:48:46.872Z,15.8
2018-12-05T10:49:37.146Z,15.8
2018-12-05T10:50:27.199Z,15.8
2018-12-05T10:51:17.521Z,15.8
2018-12-05T10:52:07.651Z,15.8
2018-12-05T10:52:57.366Z,15.8
2018-12-05T10:53:47.126Z,15.8
2018-12-05T10:54:37.874Z,15.8
2018-12-05T10:55:27.575Z,15.8
2018-12-05T10:56:17.056Z,15.8
2018-12-05T10:57:07.633Z,15.8
2018-12-05T10:57:58.048Z,15.8
2018-12-05T10:58:47.499Z,15.8
2018-12-05T10:59:37.581Z,15.8
2018-12-05T11:00:27.896Z,15.8
2018-12-05T11:01:17.653Z,15.8
2018-12-05T11:02:08.258Z,15.8
2018-12-05T11:02:58.577Z,15.8
2018-12-05T11:03:48.378Z,15.8
2018-12-05T11:04:38.466Z,15.8
2018-12-05T11:05:28.221Z,15.8
2018-12-05T11:06:18.525Z,15.8
2018-12-05T11:07:08.068Z,15.8
2018-12-05T11:07:58.378Z,15.8
2018-12-05T11:08:48.451Z,15.8
2018-12-05T11:09:38.582Z,15.8
2018-12-05T11:10:28.275Z,15.8
2018-12-05T11:11:18.387Z,15.8
2018-12-05T11:12:08.407Z,15.8
2018-12-05T11:12:58.727Z,15.8
2018-12-05T11:13:49.074Z,15.8
2018-12-05T11:14:39.120Z,15.8
2018-12-05T11:15:29.187Z,15.8
2018-12-05T11:16:19.230Z,15.8
2018-12-05T11:17:09.293Z,15.8
2018-12-05T11:17:59.377Z,15.8
2018-12-05T11:18:49.133Z,15.8
2018-12-05T11:19:38.958Z,15.8
2018-12-05T11:20:29.051Z,15.8
2018-12-05T11:21:19.574Z,15.8
2018-12-05T11:22:09.696Z,15.8
2018-12-05T11:22:59.702Z,15.8
2018-12-05T11:23:51.437Z,15.8
2018-12-05T11:24:39.520Z,15.8
2018-12-05T11:25:29.039Z,15.8
2018-12-05T11:26:19.646Z,15.8
2018-12-05T11:27:09.721Z,15.8
2018-12-05T11:28:00.006Z,15.8
2018-12-05T11:28:49.544Z,15.8
2018-12-05T11:29:39.391Z,15.8
2018-12-05T11:30:29.517Z,15.8
2018-12-05T11:31:19.229Z,15.8
2018-12-05T11:32:09.509Z,15.8
2018-12-05T11:32:59.863Z,15.8
2018-12-05T11:33:50.446Z,15.8
2018-12-05T11:34:39.374Z,15.8
2018-12-05T11:35:30.236Z,15.8
2018-12-05T11:36:20.167Z,15.8
2018-12-05T11:37:10.674Z,15.8
2018-12-05T11:38:00.465Z,15.8
2018-12-05T11:38:50.784Z,15.8
2018-12-05T11:39:40.303Z,15.8
2018-12-05T11:40:30.616Z,15.8
2018-12-05T11:41:20.382Z,15.8
2018-12-05T11:42:10.837Z,15.8
2018-12-05T11:43:00.837Z,15.8
2018-12-05T11:43:51.122Z,15.8
2018-12-05T11:44:41.185Z,15.8
2018-12-05T11:45:30.954Z,15.8
2018-12-05T11:46:21.017Z,15.8
2018-12-05T11:47:10.881Z,15.8
2018-12-05T11:48:01.099Z,15.8
2018-12-05T11:48:51.186Z,15.7
2018-12-05T11:49:41.274Z,15.8
2018-12-05T11:50:30.949Z,15.8
2018-12-05T11:51:20.681Z,15.8
2018-12-05T11:52:11.479Z,15.7
2018-12-05T11:53:01.267Z,15.8
2018-12-05T11:53:52.048Z,15.8
2018-12-05T11:54:41.879Z,15.8
2018-12-05T11:55:32.069Z,15.7
2018-12-05T11:56:21.986Z,15.8
2018-12-05T11:57:11.763Z,15.8
2018-12-05T11:58:02.351Z,15.8
2018-12-05T11:58:52.394Z,15.8